createdAt,value
2018-06-01T00:01:05.701Z,100986.88
2018-06-01T00:03:33.960Z,100992.77
2018-06-01T00:06:02.226Z,100990.36
2018-06-01T00:08:30.837Z,100995.31
2018-06-01T00:10:59.131Z,101002.13
2018-06-01T00:13:27.387Z,101003.93
2018-06-01T00:15:55.750Z,101012.30
2018-06-01T00:18:24.786Z,101014.91
2018-06-01T00:20:53.855Z,101016.03
2018-06-01T00:23:22.902Z,101016.39
2018-06-01T00:25:51.212Z,101015.85
2018-06-01T00:28:19.505Z,101015.01
2018-06-01T00:30:47.777Z,101011.50
2018-06-01T00:33:16.094Z,101014.73
2018-06-01T00:35:44.381Z,101012.98
2018-06-01T00:38:12.674Z,101011.66
2018-06-01T00:40:40.924Z,101006.60
2018-06-01T00:43:09.253Z,101012.21
2018-06-01T00:45:37.534Z,101009.77
2018-06-01T00:48:05.889Z,100996.41
2018-06-01T00:50:34.138Z,100991.92
2018-06-01T00:53:02.411Z,100996.38
2018-06-01T00:55:30.848Z,100996.85
2018-06-01T00:57:59.160Z,100992.63
2018-06-01T01:00:27.432Z,100997.02
2018-06-01T01:02:55.715Z,100997.16
2018-06-01T01:05:24.762Z,100996.42
2018-06-01T01:07:53.032Z,100998.50
2018-06-01T01:10:21.334Z,100995.77
2018-06-01T01:12:49.635Z,100989.47
2018-06-01T01:15:17.952Z,100981.53
2018-06-01T01:17:46.212Z,100980.88
2018-06-01T01:20:14.500Z,100975.12
2018-06-01T01:22:42.794Z,100978.78
2018-06-01T01:25:11.076Z,100977.11
2018-06-01T01:27:39.356Z,100985.63
2018-06-01T01:30:07.646Z,100985.86
2018-06-01T01:32:35.898Z,101003.06
2018-06-01T01:35:04.156Z,100996.61
2018-06-01T01:37:33.233Z,100996.53
2018-06-01T01:40:01.511Z,101002.09
2018-06-01T01:42:30.551Z,101012.56
2018-06-01T01:44:58.845Z,101008.25
2018-06-01T01:47:27.178Z,101007.61
2018-06-01T01:49:55.444Z,101016.09
2018-06-01T01:52:23.725Z,101019.09
2018-06-01T01:54:52.129Z,101030.39
2018-06-01T01:57:20.397Z,101032.61
2018-06-01T01:59:48.685Z,101031.44
2018-06-01T02:02:16.972Z,101031.33
2018-06-01T02:04:45.254Z,101022.60
2018-06-01T02:07:13.535Z,101015.41
2018-06-01T02:09:41.802Z,101008.12
2018-06-01T02:12:10.846Z,101006.02
2018-06-01T02:14:39.127Z,101002.01
2018-06-01T02:17:07.387Z,100998.47
2018-06-01T02:19:36.426Z,100993.80
2018-06-01T02:22:04.731Z,100991.39
2018-06-01T02:24:32.991Z,100984.07
2018-06-01T02:27:01.260Z,100981.35
2018-06-01T02:29:29.542Z,100974.34
2018-06-01T02:31:57.805Z,100970.70
2018-06-01T02:34:26.096Z,100977.31
2018-06-01T02:36:54.375Z,100976.57
2018-06-01T02:39:22.632Z,100977.16
2018-06-01T02:41:51.689Z,100982.14
2018-06-01T02:44:19.991Z,100980.55
2018-06-01T02:46:48.255Z,100985.64
2018-06-01T02:49:16.568Z,100983.08
2018-06-01T02:51:44.848Z,100977.85
2018-06-01T02:54:13.119Z,100976.30
2018-06-01T02:56:41.375Z,100978.98
2018-06-01T02:59:10.436Z,100971.94
2018-06-01T03:01:38.697Z,100966.49
2018-06-01T03:04:06.982Z,100955.06
2018-06-01T03:06:52.808Z,100951.95
2018-06-01T03:09:21.090Z,100945.61
2018-06-01T03:11:49.374Z,100930.98
2018-06-01T03:14:17.675Z,100930.31
2018-06-01T03:16:45.952Z,100940.12
2018-06-01T03:19:14.226Z,100947.24
2018-06-01T03:21:43.248Z,100969.84
2018-06-01T03:24:11.543Z,100962.37
2018-06-01T03:26:39.887Z,100961.05
2018-06-01T03:29:08.182Z,100974.16
2018-06-01T03:31:36.444Z,100994.84
2018-06-01T03:34:04.720Z,101003.99
2018-06-01T03:36:33.016Z,101002.95
2018-06-01T03:39:01.295Z,101002.91
2018-06-01T03:41:29.580Z,100992.67
2018-06-01T03:43:57.960Z,100980.73
2018-06-01T03:46:26.980Z,100966.41
2018-06-01T03:48:55.236Z,100967.77
2018-06-01T03:51:24.294Z,100968.73
2018-06-01T03:53:52.554Z,100971.11
2018-06-01T03:56:20.828Z,100970.09
2018-06-01T03:58:49.931Z,100967.86
2018-06-01T04:01:18.189Z,100977.16
2018-06-01T04:03:46.478Z,100980.41
2018-06-01T04:06:14.771Z,100990.13
2018-06-01T04:08:43.063Z,100997.70
2018-06-01T04:11:11.411Z,100998.34
2018-06-01T04:13:40.470Z,101004.74
2018-06-01T04:16:08.746Z,101013.42
2018-06-01T04:18:37.018Z,101022.41
2018-06-01T04:21:05.303Z,101025.52
2018-06-01T04:23:33.562Z,101027.28
2018-06-01T04:26:02.626Z,101048.39
2018-06-01T04:28:32.437Z,101070.01
2018-06-01T04:31:00.689Z,101087.17
2018-06-01T04:33:29.713Z,101101.56
2018-06-01T04:35:58.002Z,101116.75
2018-06-01T04:38:26.277Z,101117.50
2018-06-01T04:40:55.305Z,101120.46
2018-06-01T04:43:23.588Z,101125.06
2018-06-01T04:45:51.861Z,101119.89
2018-06-01T04:48:20.894Z,101123.81
2018-06-01T04:50:49.231Z,101130.35
2018-06-01T04:53:18.317Z,101137.59
2018-06-01T04:55:46.595Z,101141.70
2018-06-01T04:58:14.892Z,101152.73
2018-06-01T05:00:43.168Z,101153.05
2018-06-01T05:03:11.437Z,101164.25
2018-06-01T05:05:40.524Z,101167.48
2018-06-01T05:08:08.776Z,101179.19
2018-06-01T05:10:37.035Z,101177.73
2018-06-01T05:13:05.321Z,101185.70
2018-06-01T05:15:33.599Z,101188.45
2018-06-01T05:18:02.634Z,101188.69
2018-06-01T05:20:30.906Z,101170.78
2018-06-01T05:22:59.197Z,101130.56
2018-06-01T05:25:28.243Z,101098.61
2018-06-01T05:27:56.574Z,101097.27
2018-06-01T05:30:24.827Z,101098.69
2018-06-01T05:32:53.110Z,101107.95
2018-06-01T05:35:21.414Z,101109.94
2018-06-01T05:37:49.665Z,101105.19
2018-06-01T05:40:18.037Z,101096.78
2018-06-01T05:42:47.248Z,101101.50
2018-06-01T05:45:16.306Z,101091.84
2018-06-01T05:47:44.576Z,101079.00
2018-06-01T05:50:12.960Z,101078.23
2018-06-01T05:52:41.242Z,101073.22
2018-06-01T05:55:09.532Z,101065.14
2018-06-01T05:57:37.812Z,101057.78
2018-06-01T06:00:06.871Z,101047.71
2018-06-01T06:02:35.166Z,101047.94
2018-06-01T06:05:03.453Z,101043.97
2018-06-01T06:07:31.818Z,101048.53
2018-06-01T06:10:00.110Z,101046.25
2018-06-01T06:12:28.390Z,101044.86
2018-06-01T06:14:56.668Z,101049.68
2018-06-01T06:17:24.955Z,101053.83
2018-06-01T06:19:54.060Z,101046.92
2018-06-01T06:22:23.090Z,101054.99
2018-06-01T06:24:51.445Z,101057.17
2018-06-01T06:27:19.753Z,101060.52
2018-06-01T06:29:48.819Z,101078.76
2018-06-01T06:32:17.892Z,101075.47
2018-06-01T06:34:46.276Z,101079.23
2018-06-01T06:37:14.566Z,101080.75
2018-06-01T06:39:42.846Z,101081.70
2018-06-01T06:42:11.136Z,101080.78
2018-06-01T06:44:40.171Z,101078.28
2018-06-01T06:47:08.437Z,101070.47
2018-06-01T06:49:37.554Z,101068.86
2018-06-01T06:52:06.611Z,101063.64
2018-06-01T06:54:34.900Z,101056.05
2018-06-01T06:57:03.194Z,101050.64
2018-06-01T06:59:31.471Z,101039.98
2018-06-01T07:01:59.757Z,101030.02
2018-06-01T07:04:28.039Z,101026.46
2018-06-01T07:06:56.310Z,101022.91
2018-06-01T07:09:24.580Z,101015.29
2018-06-01T07:11:52.847Z,101005.02
2018-06-01T07:14:21.147Z,100992.47
2018-06-01T07:16:49.464Z,100988.53
2018-06-01T07:19:17.771Z,100984.95
2018-06-01T07:21:46.800Z,100989.13
2018-06-01T07:24:15.047Z,100995.84
2018-06-01T07:26:43.339Z,100999.77
2018-06-01T07:29:11.641Z,101002.97
2018-06-01T07:31:40.005Z,100994.48
2018-06-01T07:34:09.061Z,100999.77
2018-06-01T07:36:37.346Z,100997.30
2018-06-01T07:39:06.436Z,101000.66
2018-06-01T07:41:34.728Z,101007.28
2018-06-01T07:44:03.014Z,101002.58
2018-06-01T07:46:31.267Z,101013.62
2018-06-01T07:48:59.569Z,101014.72
2018-06-01T07:51:27.850Z,101024.25
2018-06-01T07:53:56.112Z,101019.90
2018-06-01T07:56:24.401Z,101026.39
2018-06-01T07:58:52.672Z,101029.86
2018-06-01T08:01:20.983Z,101039.42
2018-06-01T08:03:49.291Z,101054.55
2018-06-01T08:06:17.583Z,101070.62
2018-06-01T08:08:45.855Z,101084.17
2018-06-01T08:11:14.162Z,101093.67
2018-06-01T08:13:42.496Z,101096.08
2018-06-01T08:16:11.624Z,101115.92
2018-06-01T08:18:39.913Z,101121.34
2018-06-01T08:21:08.190Z,101121.51
2018-06-01T08:23:36.452Z,101119.59
2018-06-01T08:26:04.746Z,101126.79
2018-06-01T08:28:34.773Z,101138.31
2018-06-01T08:31:03.824Z,101140.58
2018-06-01T08:33:32.118Z,101145.00
2018-06-01T08:36:00.386Z,101149.87
2018-06-01T08:38:28.670Z,101149.84
2018-06-01T08:40:57.719Z,101155.59
2018-06-01T08:43:26.008Z,101151.20
2018-06-01T08:45:54.268Z,101138.17
2018-06-01T08:48:23.375Z,101136.84
2018-06-01T08:50:52.417Z,101141.08
2018-06-01T08:53:20.758Z,101153.16
2018-06-01T08:55:49.838Z,101165.36
2018-06-01T08:58:18.103Z,101175.52
2018-06-01T09:00:46.388Z,101173.77
2018-06-01T09:03:14.689Z,101168.20
2018-06-01T09:05:42.961Z,101162.88
2018-06-01T09:08:11.251Z,101151.20
2018-06-01T09:10:39.542Z,101145.45
2018-06-01T09:13:07.805Z,101152.52
2018-06-01T09:15:36.832Z,101162.52
2018-06-01T09:18:05.128Z,101165.45
2018-06-01T09:20:33.495Z,101159.89
2018-06-01T09:23:02.538Z,101157.73
2018-06-01T09:25:30.817Z,101162.14
2018-06-01T09:27:59.125Z,101169.55
2018-06-01T09:30:28.374Z,101172.42
2018-06-01T09:32:56.655Z,101181.53
2018-06-01T09:35:25.152Z,101182.94
2018-06-01T09:37:53.430Z,101176.83
2018-06-01T09:40:21.719Z,101182.97
2018-06-01T09:42:50.014Z,101178.39
2018-06-01T09:45:18.461Z,101168.72
2018-06-01T09:47:46.771Z,101167.26
2018-06-01T09:50:15.047Z,101156.88
2018-06-01T09:52:43.316Z,101147.92
2018-06-01T09:55:12.379Z,101152.50
2018-06-01T09:57:40.639Z,101153.03
2018-06-01T10:00:08.911Z,101148.67
2018-06-01T10:02:37.249Z,101145.39
2018-06-01T10:05:05.511Z,101137.92
2018-06-01T10:07:33.771Z,101139.84
2018-06-01T10:10:08.323Z,101142.05
2018-06-01T10:12:36.610Z,101145.12
2018-06-01T10:15:04.889Z,101138.14
2018-06-01T10:17:33.942Z,101143.17
2018-06-01T10:20:02.200Z,101136.13
2018-06-01T10:22:31.374Z,101132.61
2018-06-01T10:24:59.679Z,101134.78
2018-06-01T10:27:28.723Z,101141.23
2018-06-01T10:29:57.001Z,101143.09
2018-06-01T10:32:25.307Z,101145.06
2018-06-01T10:34:53.563Z,101143.95
2018-06-01T10:37:22.612Z,101138.27
2018-06-01T10:39:50.941Z,101140.78
2018-06-01T10:42:19.329Z,101137.81
2018-06-01T10:44:47.645Z,101141.10
2018-06-01T10:47:16.829Z,101142.53
2018-06-01T10:49:45.097Z,101139.41
2018-06-01T10:52:13.373Z,101140.45
2018-06-01T10:54:41.672Z,101132.73
2018-06-01T10:57:09.946Z,101139.20
2018-06-01T10:59:38.223Z,101141.30
2018-06-01T11:02:07.251Z,101140.18
2018-06-01T11:04:35.777Z,101139.74
2018-06-01T11:07:04.069Z,101145.19
2018-06-01T11:09:34.427Z,101149.44
2018-06-01T11:12:04.209Z,101145.17
2018-06-01T11:14:32.633Z,101156.80
2018-06-01T11:17:00.882Z,101157.23
2018-06-01T11:19:29.268Z,101154.86
2018-06-01T11:21:57.519Z,101157.55
2018-06-01T11:24:25.827Z,101155.87
2018-06-01T11:26:54.860Z,101161.46
2018-06-01T11:31:55.968Z,101153.22
2018-06-01T11:34:24.316Z,101147.69
2018-06-01T11:36:53.367Z,101141.02
2018-06-01T11:39:21.664Z,101143.91
2018-06-01T11:41:49.971Z,101143.30
2018-06-01T11:44:18.251Z,101137.84
2018-06-01T11:46:46.595Z,101137.02
2018-06-01T11:49:14.880Z,101135.65
2018-06-01T11:51:43.935Z,101133.83
2018-06-01T11:54:12.249Z,101135.94
2018-06-01T11:56:40.539Z,101139.36
2018-06-01T11:59:09.013Z,101139.91
2018-06-01T12:01:37.291Z,101136.80
2018-06-01T12:04:05.552Z,101139.17
2018-06-01T12:06:33.851Z,101135.73
2018-06-01T12:09:02.156Z,101135.51
2018-06-01T12:11:30.410Z,101137.80
2018-06-01T12:13:59.493Z,101137.53
2018-06-01T12:16:27.763Z,101141.03
2018-06-01T12:18:56.024Z,101137.19
2018-06-01T12:21:24.303Z,101143.75
2018-06-01T12:23:52.613Z,101143.45
2018-06-01T12:26:20.992Z,101142.45
2018-06-01T12:28:49.297Z,101143.43
2018-06-01T12:31:17.612Z,101144.56
2018-06-01T12:33:45.888Z,101145.94
2018-06-01T12:36:14.155Z,101151.71
2018-06-01T12:38:42.458Z,101149.79
2018-06-01T12:41:10.724Z,101146.38
2018-06-01T12:43:39.770Z,101152.23
2018-06-01T12:46:08.050Z,101149.00
2018-06-01T12:48:36.319Z,101145.81
2018-06-01T12:51:04.583Z,101150.02
2018-06-01T12:53:33.622Z,101147.89
2018-06-01T12:56:01.907Z,101146.99
2018-06-01T12:58:30.191Z,101146.49
2018-06-01T13:00:58.484Z,101148.01
2018-06-01T13:03:26.762Z,101145.86
2018-06-01T13:05:55.059Z,101148.63
2018-06-01T13:08:24.117Z,101147.54
2018-06-01T13:10:52.371Z,101144.92
2018-06-01T13:13:20.680Z,101137.23
2018-06-01T13:15:48.985Z,101136.48
2018-06-01T13:18:17.438Z,101130.59
2018-06-01T13:20:45.763Z,101122.86
2018-06-01T13:23:14.026Z,101124.27
2018-06-01T13:25:42.317Z,101123.80
2018-06-01T13:28:10.613Z,101122.36
2018-06-01T13:30:38.885Z,101122.08
2018-06-01T13:33:07.911Z,101123.48
2018-06-01T13:35:36.168Z,101123.67
2018-06-01T13:38:05.212Z,101124.63
2018-06-01T13:40:33.883Z,101135.06
2018-06-01T13:43:02.919Z,101130.06
2018-06-01T13:45:31.194Z,101135.63
2018-06-01T13:47:59.488Z,101139.06
2018-06-01T13:50:27.752Z,101141.80
2018-06-01T13:52:56.795Z,101130.69
2018-06-01T13:55:25.097Z,101136.56
2018-06-01T13:57:53.393Z,101135.50
2018-06-01T14:00:21.863Z,101146.25
2018-06-01T14:02:50.924Z,101141.73
2018-06-01T14:05:19.219Z,101145.19
2018-06-01T14:07:47.546Z,101143.10
2018-06-01T14:10:15.833Z,101139.48
2018-06-01T14:12:44.874Z,101145.05
2018-06-01T14:15:13.164Z,101148.81
2018-06-01T14:17:41.424Z,101142.80
2018-06-01T14:20:10.443Z,101137.99
2018-06-01T14:22:38.755Z,101141.63
2018-06-01T14:25:07.024Z,101141.29
2018-06-01T14:27:35.284Z,101136.44
2018-06-01T14:30:04.355Z,101137.85
2018-06-01T14:32:32.627Z,101140.52
2018-06-01T14:35:00.977Z,101136.23
2018-06-01T14:37:29.298Z,101138.66
2018-06-01T14:39:57.624Z,101137.84
2018-06-01T14:42:25.898Z,101146.36
2018-06-01T14:44:54.196Z,101143.55
2018-06-01T14:47:22.549Z,101147.66
2018-06-01T14:49:51.597Z,101152.84
2018-06-01T14:52:19.957Z,101151.45
2018-06-01T14:54:48.241Z,101160.03
2018-06-01T14:57:16.513Z,101159.81
2018-06-01T14:59:45.566Z,101165.25
2018-06-01T15:02:13.839Z,101163.19
2018-06-01T15:04:42.102Z,101155.51
2018-06-01T15:07:11.135Z,101159.86
2018-06-01T15:09:39.416Z,101162.86
2018-06-01T15:12:07.732Z,101167.66
2018-06-01T15:14:36.008Z,101158.31
2018-06-01T15:17:04.376Z,101164.38
2018-06-01T15:19:32.662Z,101161.67
2018-06-01T15:22:01.729Z,101159.27
2018-06-01T15:24:29.993Z,101159.86
2018-06-01T15:26:58.287Z,101161.31
2018-06-01T15:29:26.580Z,101162.66
2018-06-01T15:31:54.853Z,101161.02
2018-06-01T15:34:23.240Z,101175.55
2018-06-01T15:36:51.513Z,101175.13
2018-06-01T15:39:20.586Z,101183.63
2018-06-01T15:41:48.851Z,101185.34
2018-06-01T15:44:17.135Z,101189.77
2018-06-01T15:46:45.409Z,101196.53
2018-06-01T15:49:13.874Z,101199.98
2018-06-01T15:51:42.132Z,101200.20
2018-06-01T15:54:10.397Z,101200.89
2018-06-01T15:56:38.663Z,101194.80
2018-06-01T15:59:06.958Z,101201.42
2018-06-01T16:01:35.219Z,101200.17
2018-06-01T16:04:04.266Z,101198.22
2018-06-01T16:06:32.532Z,101198.30
2018-06-01T16:09:01.582Z,101199.70
2018-06-01T16:11:29.859Z,101198.45
2018-06-01T16:13:58.137Z,101196.24
2018-06-01T16:16:26.417Z,101206.73
2018-06-01T16:18:56.516Z,101204.92
2018-06-01T16:21:24.807Z,101203.50
2018-06-01T16:23:53.079Z,101208.52
2018-06-01T16:26:23.043Z,101207.00
2018-06-01T16:28:51.696Z,101209.48
2018-06-01T16:31:19.994Z,101210.17
2018-06-01T16:33:48.266Z,101216.30
2018-06-01T16:36:16.591Z,101220.33
2018-06-01T16:38:44.925Z,101216.03
2018-06-01T16:41:13.970Z,101216.06
2018-06-01T16:43:42.240Z,101218.67
2018-06-01T16:46:10.499Z,101226.95
2018-06-01T16:48:40.210Z,101221.16
2018-06-01T16:51:08.483Z,101223.45
2018-06-01T16:53:36.731Z,101223.00
2018-06-01T16:56:05.034Z,101221.11
2018-06-01T16:58:33.337Z,101221.80
2018-06-01T17:01:01.592Z,101220.91
2018-06-01T17:03:29.855Z,101228.52
2018-06-01T17:05:58.128Z,101230.02
2018-06-01T17:08:26.410Z,101232.36
2018-06-01T17:10:54.677Z,101231.20
2018-06-01T17:13:23.050Z,101234.98
2018-06-01T17:15:52.076Z,101234.75
2018-06-01T17:18:20.389Z,101236.80
2018-06-01T17:20:48.674Z,101242.58
2018-06-01T17:23:17.260Z,101241.16
2018-06-01T17:25:45.518Z,101245.67
2018-06-01T17:28:13.824Z,101245.39
2018-06-01T17:30:42.071Z,101239.82
2018-06-01T17:33:10.366Z,101250.92
2018-06-01T17:35:38.789Z,101254.08
2018-06-01T17:38:07.831Z,101254.66
2018-06-01T17:40:36.096Z,101257.61
2018-06-01T17:43:04.386Z,101255.62
2018-06-01T17:45:32.655Z,101258.03
2018-06-01T17:48:01.779Z,101258.87
2018-06-01T17:50:30.073Z,101264.78
2018-06-01T17:52:58.348Z,101262.79
2018-06-01T17:55:27.389Z,101266.77
2018-06-01T17:57:55.701Z,101259.63
2018-06-01T18:00:23.948Z,101273.78
2018-06-01T18:02:52.212Z,101268.36
2018-06-01T18:05:21.272Z,101276.23
2018-06-01T18:07:49.541Z,101279.91
2018-06-01T18:10:17.858Z,101287.92
2018-06-01T18:12:46.187Z,101283.23
2018-06-01T18:15:14.448Z,101282.31
2018-06-01T18:17:42.715Z,101274.88
2018-06-01T18:20:11.013Z,101280.34
2018-06-01T18:22:39.325Z,101279.40
2018-06-01T18:25:07.594Z,101279.34
2018-06-01T18:27:36.758Z,101277.59
2018-06-01T18:30:05.775Z,101274.84
2018-06-01T18:32:34.073Z,101275.91
2018-06-01T18:35:02.412Z,101274.78
2018-06-01T18:37:30.689Z,101272.27
2018-06-01T18:39:58.990Z,101272.23
2018-06-01T18:42:27.314Z,101271.26
2018-06-01T18:44:56.371Z,101269.52
2018-06-01T18:47:24.663Z,101278.73
2018-06-01T18:49:53.254Z,101273.34
2018-06-01T18:52:21.771Z,101280.52
2018-06-01T18:54:50.068Z,101277.03
2018-06-01T18:57:18.394Z,101277.77
2018-06-01T18:59:47.465Z,101275.68
2018-06-01T19:02:15.732Z,101276.91
2018-06-01T19:04:44.099Z,101272.16
2018-06-01T19:07:12.362Z,101273.22
2018-06-01T19:09:40.626Z,101278.47
2018-06-01T19:12:08.897Z,101285.30
2018-06-01T19:14:37.205Z,101287.92
2018-06-01T19:17:05.524Z,101289.95
2018-06-01T19:19:33.804Z,101295.63
2018-06-01T19:22:02.074Z,101297.27
2018-06-01T19:24:30.354Z,101298.16
2018-06-01T19:26:58.657Z,101302.63
2018-06-01T19:29:26.917Z,101305.20
2018-06-01T19:31:55.242Z,101308.04
2018-06-01T19:34:23.524Z,101309.02
2018-06-01T19:36:51.799Z,101308.04
2018-06-01T19:39:20.089Z,101315.97
2018-06-01T19:41:48.428Z,101315.54
2018-06-01T19:44:16.687Z,101322.30
2018-06-01T19:46:45.097Z,101322.10
2018-06-01T19:49:13.360Z,101321.76
2018-06-01T19:51:41.645Z,101326.69
2018-06-01T19:54:09.920Z,101327.29
2018-06-01T19:56:38.216Z,101329.27
2018-06-01T19:59:06.496Z,101328.78
2018-06-01T20:01:34.789Z,101332.97
2018-06-01T20:04:03.074Z,101335.52
2018-06-01T20:06:31.350Z,101339.61
2018-06-01T20:09:00.389Z,101343.41
2018-06-01T20:11:28.672Z,101341.09
2018-06-01T20:13:57.053Z,101341.41
2018-06-01T20:16:25.405Z,101350.34
2018-06-01T20:18:53.704Z,101358.10
2018-06-01T20:21:22.007Z,101360.98
2018-06-01T20:23:50.309Z,101361.19
2018-06-01T20:26:19.409Z,101364.30
2018-06-01T20:28:47.753Z,101364.09
2018-06-01T20:31:16.816Z,101363.64
2018-06-01T20:33:45.130Z,101362.78
2018-06-01T20:36:14.223Z,101359.86
2018-06-01T20:38:42.479Z,101359.37
2018-06-01T20:41:11.029Z,101356.39
2018-06-01T20:43:39.322Z,101362.49
2018-06-01T20:46:07.595Z,101359.00
2018-06-01T20:48:35.882Z,101360.63
2018-06-01T20:51:04.137Z,101361.17
2018-06-01T20:53:33.204Z,101363.92
2018-06-01T20:56:01.489Z,101365.18
2018-06-01T20:58:29.786Z,101356.91
2018-06-01T21:00:58.080Z,101355.42
2018-06-01T21:03:26.355Z,101348.38
2018-06-01T21:05:54.642Z,101351.36
2018-06-01T21:08:22.977Z,101348.27
2018-06-01T21:10:51.323Z,101350.98
2018-06-01T21:13:19.620Z,101354.08
2018-06-01T21:15:47.933Z,101353.11
2018-06-01T21:18:16.212Z,101352.53
2018-06-01T21:20:44.536Z,101357.28
2018-06-01T21:23:12.784Z,101356.37
2018-06-01T21:25:41.156Z,101358.23
2018-06-01T21:28:09.433Z,101362.06
2018-06-01T21:30:38.456Z,101366.04
2018-06-01T21:33:06.727Z,101363.92
2018-06-01T21:35:35.042Z,101366.84
2018-06-01T21:38:03.311Z,101371.19
2018-06-01T21:40:32.343Z,101369.42
2018-06-01T21:43:00.721Z,101381.73
2018-06-01T21:45:29.768Z,101379.50
2018-06-01T21:47:58.096Z,101379.84
2018-06-01T21:50:26.386Z,101382.61
2018-06-01T21:52:54.688Z,101379.09
2018-06-01T21:55:23.020Z,101381.19
2018-06-01T21:57:51.374Z,101380.52
2018-06-01T22:00:20.473Z,101383.18
2018-06-01T22:02:49.569Z,101390.70
2018-06-01T22:05:17.916Z,101389.44
2018-06-01T22:07:46.292Z,101394.42
2018-06-01T22:10:14.663Z,101394.16
2018-06-01T22:12:43.707Z,101385.80
2018-06-01T22:15:11.989Z,101397.99
2018-06-01T22:17:40.268Z,101392.84
2018-06-01T22:20:09.445Z,101397.27
2018-06-01T22:22:37.769Z,101396.98
2018-06-01T22:25:06.036Z,101404.42
2018-06-01T22:27:35.174Z,101404.66
2018-06-01T22:30:03.438Z,101410.48
2018-06-01T22:32:32.503Z,101404.34
2018-06-01T22:35:00.786Z,101398.73
2018-06-01T22:37:29.062Z,101401.49
2018-06-01T22:39:57.348Z,101402.38
2018-06-01T22:42:25.654Z,101399.40
2018-06-01T22:44:53.890Z,101404.66
2018-06-01T22:47:22.184Z,101400.05
2018-06-01T22:49:51.245Z,101398.30
2018-06-01T22:52:19.505Z,101403.03
2018-06-01T22:54:48.527Z,101399.97
2018-06-01T22:57:16.794Z,101398.27
2018-06-01T22:59:45.102Z,101392.69
2018-06-01T23:02:13.410Z,101393.80
2018-06-01T23:04:41.660Z,101389.30
2018-06-01T23:07:10.714Z,101391.91
2018-06-01T23:09:39.047Z,101383.39
2018-06-01T23:12:07.366Z,101381.65
2018-06-01T23:14:35.691Z,101375.58
2018-06-01T23:17:04.719Z,101381.87
2018-06-01T23:19:32.989Z,101385.81
2018-06-01T23:22:01.263Z,101381.09
2018-06-01T23:24:29.554Z,101377.56
2018-06-01T23:26:57.826Z,101375.45
2018-06-01T23:29:26.087Z,101377.70
2018-06-01T23:31:55.187Z,101375.61
2018-06-01T23:34:23.481Z,101375.95
2018-06-01T23:36:51.759Z,101385.89
2018-06-01T23:39:20.095Z,101374.37
2018-06-01T23:41:48.383Z,101378.42
2018-06-01T23:44:16.724Z,101376.27
2018-06-01T23:46:45.048Z,101379.98
2018-06-01T23:49:14.091Z,101378.22
2018-06-01T23:51:42.423Z,101380.77
2018-06-01T23:54:10.697Z,101378.67
2018-06-01T23:56:38.985Z,101378.33
2018-06-01T23:59:07.244Z,101379.91
